Gelendzhik, Russia
Current Conditions -  °F | °C
As of 12:00 AM on Tuesday 23 Dec 2014 (Local Time) from URKA Reporting Station
Broken Clouds Broken Clouds  
Wind Chill: 32°   Ceiling: 12000
Heat Index: 37°   Visibility: 6mi
Dew Point: 32°   Wind: 7mph
Humidity: 81%   Direction: 160°SSE
Pressure: 30.06"   Gusts: NA
Location:  44.57°N, 38.07°E
Report Text: URKA 222100Z 16003MPS 9999 FEW036 BKN120 03/M00 Q1018 RMKQFE759/1012
Loading
Personal Weather Stations






























Interactive Weather Map New forecast layout! Learn more

10-Day Weather Forecast

Advertisements
Track Severe Weather on mobile